createdAt,value
2023-05-19T00:00:48.543Z,99750.63
2023-05-19T00:03:54.584Z,99751.19
2023-05-19T00:06:59.840Z,99752.84
2023-05-19T00:10:02.606Z,99747.97
2023-05-19T00:13:05.285Z,99740.34
2023-05-19T00:16:08.314Z,99736.44
2023-05-19T00:19:12.778Z,99732.31
2023-05-19T00:22:15.620Z,99729.88
2023-05-19T00:25:18.321Z,99724.41
2023-05-19T00:28:20.639Z,99733.47
2023-05-19T00:31:23.359Z,99727.53
2023-05-19T00:34:26.036Z,99725.44
2023-05-19T00:37:28.644Z,99733.94
2023-05-19T00:40:32.354Z,99738.50
2023-05-19T00:43:35.420Z,99730.69
2023-05-19T00:46:38.346Z,99739.25
2023-05-19T00:49:41.360Z,99728.38
2023-05-19T00:52:44.068Z,99733.28
2023-05-19T00:55:48.301Z,99728.81
2023-05-19T00:58:55.214Z,99730.94
2023-05-19T01:01:58.663Z,99722.91
2023-05-19T01:05:02.400Z,99722.91
2023-05-19T01:08:06.196Z,99732.41
2023-05-19T01:11:08.721Z,99722.00
2023-05-19T01:14:11.457Z,99741.88
2023-05-19T01:17:29.774Z,99717.34
2023-05-19T01:20:39.371Z,99703.06
2023-05-19T01:23:57.227Z,99705.75
2023-05-19T01:27:19.247Z,99707.63
2023-05-19T01:30:32.671Z,99695.25
2023-05-19T01:33:36.469Z,99692.47
2023-05-19T01:36:41.405Z,99700.25
2023-05-19T01:39:45.292Z,99700.16
2023-05-19T01:42:49.594Z,99701.03
2023-05-19T01:45:52.891Z,99702.06
2023-05-19T01:48:57.501Z,99704.97
2023-05-19T01:52:00.332Z,99703.28
2023-05-19T01:55:02.956Z,99697.81
2023-05-19T01:58:20.805Z,99705.06
2023-05-19T02:01:36.044Z,99701.38
2023-05-19T02:04:45.255Z,99708.09
2023-05-19T02:07:58.274Z,99708.31
2023-05-19T02:11:09.362Z,99724.81
2023-05-19T02:14:21.534Z,99726.59
2023-05-19T02:17:27.679Z,99716.78
2023-05-19T02:20:31.588Z,99722.13
2023-05-19T02:23:34.470Z,99718.78
2023-05-19T02:26:36.814Z,99713.09
2023-05-19T02:29:39.912Z,99711.50
2023-05-19T02:32:42.619Z,99716.88
2023-05-19T02:35:45.220Z,99716.44
2023-05-19T02:38:47.600Z,99713.97
2023-05-19T02:41:51.041Z,99713.75
2023-05-19T02:44:55.103Z,99717.78
2023-05-19T02:47:57.701Z,99708.97
2023-05-19T02:51:01.313Z,99719.00
2023-05-19T02:54:04.289Z,99714.84
2023-05-19T02:57:07.305Z,99716.31
2023-05-19T03:00:10.399Z,99713.75
2023-05-19T03:03:14.057Z,99712.97
2023-05-19T03:06:18.443Z,99710.63
2023-05-19T03:09:21.116Z,99714.88
2023-05-19T03:12:23.695Z,99711.75
2023-05-19T03:15:26.062Z,99709.09
2023-05-19T03:18:28.520Z,99705.19
2023-05-19T03:21:32.255Z,99711.06
2023-05-19T03:24:34.871Z,99716.88
2023-05-19T03:27:38.447Z,99713.41
2023-05-19T03:30:41.762Z,99718.13
2023-05-19T03:33:49.130Z,99720.22
2023-05-19T03:36:51.443Z,99721.00
2023-05-19T03:39:54.083Z,99721.47
2023-05-19T03:42:56.899Z,99726.94
2023-05-19T03:45:59.724Z,99716.53
2023-05-19T03:49:20.815Z,99722.44
2023-05-19T03:52:45.746Z,99720.41
2023-05-19T03:56:00.785Z,99721.63
2023-05-19T03:59:06.453Z,99729.09
2023-05-19T04:02:08.892Z,99719.94
2023-05-19T04:05:11.662Z,99730.41
2023-05-19T04:08:13.978Z,99729.03
2023-05-19T04:11:16.856Z,99730.47
2023-05-19T04:14:20.275Z,99728.72
2023-05-19T04:17:26.358Z,99737.94
2023-05-19T04:20:30.228Z,99738.50
2023-05-19T04:23:33.576Z,99740.72
2023-05-19T04:26:40.365Z,99734.88
2023-05-19T04:29:42.912Z,99732.31
2023-05-19T04:32:46.016Z,99742.44
2023-05-19T04:35:50.941Z,99741.38
2023-05-19T04:39:02.704Z,99737.81
2023-05-19T04:42:06.799Z,99750.81
2023-05-19T04:45:10.553Z,99745.69
2023-05-19T04:48:17.093Z,99749.69
2023-05-19T04:51:21.285Z,99743.47
2023-05-19T04:54:24.353Z,99757.59
2023-05-19T04:57:27.444Z,99749.16
2023-05-19T05:00:29.916Z,99752.47
2023-05-19T05:03:38.930Z,99754.38
2023-05-19T05:06:42.483Z,99748.97
2023-05-19T05:09:46.022Z,99762.53
2023-05-19T05:12:48.922Z,99757.81
2023-05-19T05:15:52.778Z,99760.88
2023-05-19T05:18:56.157Z,99756.44
2023-05-19T05:22:00.959Z,99753.94
2023-05-19T05:25:04.162Z,99755.75
2023-05-19T05:28:06.792Z,99759.03
2023-05-19T05:31:12.280Z,99766.47
2023-05-19T05:34:15.528Z,99759.22
2023-05-19T05:37:18.826Z,99752.94
2023-05-19T05:40:21.892Z,99756.72
2023-05-19T05:43:24.834Z,99761.72
2023-05-19T05:46:33.133Z,99759.72
2023-05-19T05:49:38.455Z,99765.59
2023-05-19T05:52:42.285Z,99769.66
2023-05-19T05:55:46.948Z,99761.22
2023-05-19T05:58:50.875Z,99760.69
2023-05-19T06:01:53.783Z,99766.78
2023-05-19T06:04:56.919Z,99758.69
2023-05-19T06:07:59.985Z,99753.31
2023-05-19T06:11:09.364Z,99762.59
2023-05-19T06:14:14.826Z,99759.09
2023-05-19T06:17:47.990Z,99763.69
2023-05-19T06:20:50.570Z,99759.31
2023-05-19T06:23:53.572Z,99764.38
2023-05-19T06:26:56.235Z,99761.50
2023-05-19T06:30:01.199Z,99775.94
2023-05-19T06:33:07.110Z,99777.41
2023-05-19T06:36:10.237Z,99783.97
2023-05-19T06:39:14.575Z,99790.41
2023-05-19T06:42:16.903Z,99789.31
2023-05-19T06:45:33.010Z,99795.56
2023-05-19T06:48:37.814Z,99798.69
2023-05-19T06:51:40.360Z,99797.03
2023-05-19T06:54:42.937Z,99796.38
2023-05-19T06:57:46.438Z,99801.53
2023-05-19T07:00:49.734Z,99803.28
2023-05-19T07:03:53.238Z,99795.69
2023-05-19T07:06:56.648Z,99807.31
2023-05-19T07:09:59.973Z,99807.34
2023-05-19T07:13:04.487Z,99801.66
2023-05-19T07:16:08.754Z,99802.84
2023-05-19T07:19:11.322Z,99803.72
2023-05-19T07:22:13.710Z,99794.50
2023-05-19T07:25:16.187Z,99796.84
2023-05-19T07:28:21.582Z,99791.16
2023-05-19T07:31:24.151Z,99795.25
2023-05-19T07:34:26.612Z,99792.44
2023-05-19T07:37:28.994Z,99791.91
2023-05-19T07:40:31.893Z,99795.75
2023-05-19T07:43:34.406Z,99789.00
2023-05-19T07:46:38.001Z,99797.13
2023-05-19T07:49:40.548Z,99789.03
2023-05-19T07:52:44.214Z,99799.19
2023-05-19T07:55:47.078Z,99793.00
2023-05-19T07:58:49.470Z,99789.69
2023-05-19T08:01:52.179Z,99790.41
2023-05-19T08:04:54.577Z,99786.25
2023-05-19T08:07:57.466Z,99778.47
2023-05-19T08:11:04.346Z,99769.22
2023-05-19T08:14:06.661Z,99764.22
2023-05-19T08:17:09.025Z,99765.91
2023-05-19T08:20:14.439Z,99756.50
2023-05-19T08:23:18.353Z,99764.22
2023-05-19T08:26:21.663Z,99768.50
2023-05-19T08:29:24.262Z,99769.47
2023-05-19T08:32:26.780Z,99771.38
2023-05-19T08:35:29.064Z,99765.75
2023-05-19T08:38:31.528Z,99767.66
2023-05-19T08:41:33.851Z,99777.03
2023-05-19T08:44:37.932Z,99781.97
2023-05-19T08:47:49.812Z,99768.38
2023-05-19T08:51:03.576Z,99772.16
2023-05-19T08:54:17.919Z,99768.75
2023-05-19T08:57:23.094Z,99769.38
2023-05-19T09:00:25.996Z,99770.97
2023-05-19T09:03:30.352Z,99775.91
2023-05-19T09:06:33.066Z,99778.72
2023-05-19T09:09:36.775Z,99777.41
2023-05-19T09:12:39.094Z,99767.47
2023-05-19T09:15:42.975Z,99769.22
2023-05-19T09:18:58.593Z,99769.16
2023-05-19T09:22:05.159Z,99771.66
2023-05-19T09:25:19.183Z,99776.56
2023-05-19T09:28:33.345Z,99768.88
2023-05-19T09:31:35.774Z,99763.06
2023-05-19T09:34:41.795Z,99763.53
2023-05-19T09:37:44.349Z,99761.97
2023-05-19T09:40:49.826Z,99766.56
2023-05-19T09:43:58.571Z,99766.16
2023-05-19T09:47:01.220Z,99757.81
2023-05-19T09:50:05.534Z,99761.53
2023-05-19T09:53:08.163Z,99765.16
2023-05-19T09:56:11.095Z,99755.94
2023-05-19T09:59:16.518Z,99754.06
2023-05-19T10:02:25.115Z,99756.34
2023-05-19T10:05:30.469Z,99760.72
2023-05-19T10:08:34.777Z,99748.75
2023-05-19T10:11:41.314Z,99743.22
2023-05-19T10:14:44.872Z,99738.25
2023-05-19T10:17:47.209Z,99738.06
2023-05-19T10:20:50.298Z,99743.41
2023-05-19T10:23:52.778Z,99745.75
2023-05-19T10:27:03.684Z,99742.22
2023-05-19T10:30:15.637Z,99742.84
2023-05-19T10:33:21.094Z,99742.75
2023-05-19T10:36:38.014Z,99739.91
2023-05-19T10:39:42.602Z,99731.59
2023-05-19T10:43:20.861Z,99726.31
2023-05-19T10:46:30.365Z,99723.47
2023-05-19T10:49:36.632Z,99710.81
2023-05-19T10:52:40.202Z,99712.47
2023-05-19T10:56:07.696Z,99719.03
2023-05-19T10:59:31.176Z,99717.13
2023-05-19T11:02:37.373Z,99710.63
2023-05-19T11:05:39.897Z,99704.25
2023-05-19T11:08:42.317Z,99699.59
2023-05-19T11:11:49.070Z,99696.13
2023-05-19T11:14:55.331Z,99686.31
2023-05-19T11:17:57.924Z,99696.75
2023-05-19T11:21:02.666Z,99701.38
2023-05-19T11:24:08.921Z,99716.47
2023-05-19T11:27:31.719Z,99705.88
2023-05-19T11:30:34.874Z,99708.69
2023-05-19T11:33:37.980Z,99700.19
2023-05-19T11:36:41.384Z,99700.97
2023-05-19T11:39:45.817Z,99702.47
2023-05-19T11:42:48.140Z,99700.84
2023-05-19T11:45:51.111Z,99694.38
2023-05-19T11:48:54.109Z,99692.47
2023-05-19T11:51:57.485Z,99695.84
2023-05-19T11:55:04.346Z,99682.06
2023-05-19T11:58:09.996Z,99693.69
2023-05-19T12:01:12.553Z,99682.91
2023-05-19T12:04:14.882Z,99687.47
2023-05-19T12:07:19.061Z,99692.06
2023-05-19T12:10:26.613Z,99691.50
2023-05-19T12:13:29.351Z,99686.03
2023-05-19T12:16:35.764Z,99689.06
2023-05-19T12:19:38.612Z,99675.63
2023-05-19T12:22:41.042Z,99681.56
2023-05-19T12:25:43.463Z,99671.97
2023-05-19T12:28:46.134Z,99668.66
2023-05-19T12:31:49.430Z,99669.94
2023-05-19T12:34:53.066Z,99672.38
2023-05-19T12:37:55.537Z,99671.16
2023-05-19T12:41:00.904Z,99667.22
2023-05-19T12:44:14.967Z,99664.47
2023-05-19T12:47:19.127Z,99666.06
2023-05-19T12:50:21.551Z,99658.16
2023-05-19T12:53:27.232Z,99655.72
2023-05-19T12:56:29.527Z,99646.75
2023-05-19T12:59:54.882Z,99659.38
2023-05-19T13:03:01.450Z,99645.84
2023-05-19T13:06:04.078Z,99647.13
2023-05-19T13:09:07.302Z,99637.88
2023-05-19T13:12:09.716Z,99639.59
2023-05-19T13:15:12.080Z,99640.72
2023-05-19T13:18:21.996Z,99636.47
2023-05-19T13:21:25.267Z,99626.22
2023-05-19T13:24:27.801Z,99627.06
2023-05-19T13:27:30.068Z,99619.16
2023-05-19T13:30:38.016Z,99613.91
2023-05-19T13:33:40.736Z,99622.91
2023-05-19T13:36:48.138Z,99619.81
2023-05-19T13:39:51.577Z,99612.91
2023-05-19T13:42:53.863Z,99614.72
2023-05-19T13:45:56.338Z,99613.53
2023-05-19T13:48:58.716Z,99608.94
2023-05-19T13:52:01.025Z,99598.88
2023-05-19T13:55:03.713Z,99605.28
2023-05-19T13:58:06.195Z,99590.09
2023-05-19T14:01:09.440Z,99589.16
2023-05-19T14:04:13.342Z,99598.03
2023-05-19T14:07:16.758Z,99596.00
2023-05-19T14:10:19.151Z,99594.28
2023-05-19T14:13:31.989Z,99597.34
2023-05-19T14:16:38.344Z,99597.69
2023-05-19T14:19:40.908Z,99600.28
2023-05-19T14:22:43.206Z,99592.09
2023-05-19T14:25:45.790Z,99593.06
2023-05-19T14:28:48.043Z,99600.31
2023-05-19T14:31:50.597Z,99595.22
2023-05-19T14:34:53.089Z,99589.97
2023-05-19T14:37:55.454Z,99589.91
2023-05-19T14:40:57.790Z,99599.97
2023-05-19T14:44:00.187Z,99594.91
2023-05-19T14:47:02.573Z,99597.56
2023-05-19T14:50:05.723Z,99595.94
2023-05-19T14:53:08.005Z,99589.06
2023-05-19T14:56:10.270Z,99591.47
2023-05-19T14:59:12.574Z,99591.75
2023-05-19T15:02:14.810Z,99579.69
2023-05-19T15:05:17.395Z,99580.75
2023-05-19T15:08:19.815Z,99594.13
2023-05-19T15:11:22.480Z,99582.59
2023-05-19T15:14:24.791Z,99579.75
2023-05-19T15:17:27.065Z,99573.53
2023-05-19T15:20:29.685Z,99567.66
2023-05-19T15:23:32.180Z,99579.63
2023-05-19T15:26:34.474Z,99568.78
2023-05-19T15:29:36.855Z,99572.09
2023-05-19T15:32:39.165Z,99570.91
2023-05-19T15:35:41.877Z,99574.09
2023-05-19T15:38:44.268Z,99577.94
2023-05-19T15:41:46.562Z,99567.31
2023-05-19T15:44:48.966Z,99569.22
2023-05-19T15:47:51.372Z,99566.44
2023-05-19T15:50:53.660Z,99562.53
2023-05-19T15:53:56.056Z,99567.78
2023-05-19T15:56:58.407Z,99565.81
2023-05-19T16:00:01.104Z,99566.59
2023-05-19T16:03:03.435Z,99571.03
2023-05-19T16:06:05.948Z,99570.69
2023-05-19T16:09:08.221Z,99570.47
2023-05-19T16:12:10.621Z,99571.25
2023-05-19T16:15:12.963Z,99575.97
2023-05-19T16:18:16.082Z,99576.53
2023-05-19T16:21:18.512Z,99581.38
2023-05-19T16:24:21.031Z,99581.47
2023-05-19T16:27:23.346Z,99582.41
2023-05-19T16:30:27.942Z,99581.25
2023-05-19T16:33:30.454Z,99585.34
2023-05-19T16:36:32.804Z,99587.41
2023-05-19T16:39:38.120Z,99593.00
2023-05-19T16:42:40.962Z,99584.56
2023-05-19T16:45:43.280Z,99594.25
2023-05-19T16:48:45.756Z,99586.63
2023-05-19T16:51:48.943Z,99589.75
2023-05-19T16:54:51.435Z,99584.88
2023-05-19T16:57:53.960Z,99581.09
2023-05-19T17:00:57.628Z,99589.44
2023-05-19T17:04:00.004Z,99587.22
2023-05-19T17:07:02.405Z,99592.91
2023-05-19T17:10:05.207Z,99591.00
2023-05-19T17:13:07.493Z,99585.41
2023-05-19T17:16:09.745Z,99592.16
2023-05-19T17:19:12.523Z,99591.78
2023-05-19T17:22:14.863Z,99589.63
2023-05-19T17:25:17.249Z,99591.81
2023-05-19T17:28:19.551Z,99589.69
2023-05-19T17:31:21.857Z,99598.72
2023-05-19T17:34:24.243Z,99589.53
2023-05-19T17:37:26.574Z,99590.94
2023-05-19T17:40:28.931Z,99597.34
2023-05-19T17:43:31.204Z,99592.66
2023-05-19T17:46:35.797Z,99596.75
2023-05-19T17:49:40.175Z,99601.81
2023-05-19T17:52:42.945Z,99600.63
2023-05-19T17:55:53.417Z,99604.66
2023-05-19T17:58:56.057Z,99604.50
2023-05-19T18:01:58.682Z,99604.19
2023-05-19T18:05:01.841Z,99594.88
2023-05-19T18:08:07.187Z,99599.75
2023-05-19T18:11:13.421Z,99601.47
2023-05-19T18:14:15.873Z,99606.94
2023-05-19T18:17:18.207Z,99603.56
2023-05-19T18:20:20.577Z,99609.84
2023-05-19T18:23:22.855Z,99607.47
2023-05-19T18:26:25.139Z,99606.13
2023-05-19T18:29:30.286Z,99603.44
2023-05-19T18:32:33.944Z,99616.53
2023-05-19T18:35:37.179Z,99619.47
2023-05-19T18:38:40.432Z,99618.00
2023-05-19T18:41:42.818Z,99620.09
2023-05-19T18:44:47.151Z,99625.41
2023-05-19T18:47:49.431Z,99637.31
2023-05-19T18:50:51.951Z,99636.06
2023-05-19T18:53:54.283Z,99633.09
2023-05-19T18:56:56.612Z,99628.25
2023-05-19T18:59:58.880Z,99635.72
2023-05-19T19:03:01.799Z,99639.13
2023-05-19T19:06:04.238Z,99637.66
2023-05-19T19:09:06.568Z,99638.53
2023-05-19T19:12:09.040Z,99637.97
2023-05-19T19:15:11.634Z,99628.03
2023-05-19T19:18:14.067Z,99643.88
2023-05-19T19:21:16.421Z,99634.94
2023-05-19T19:24:18.665Z,99642.13
2023-05-19T19:27:21.363Z,99645.34
2023-05-19T19:30:26.865Z,99646.06
2023-05-19T19:33:34.364Z,99658.59
2023-05-19T19:36:36.841Z,99649.75
2023-05-19T19:39:39.480Z,99654.81
2023-05-19T19:42:41.842Z,99659.97
2023-05-19T19:45:44.195Z,99665.97
2023-05-19T19:48:46.472Z,99662.97
2023-05-19T19:51:48.769Z,99668.28
2023-05-19T19:54:51.492Z,99666.44
2023-05-19T19:57:53.820Z,99675.78
2023-05-19T20:01:00.614Z,99680.81
2023-05-19T20:04:03.199Z,99682.38
2023-05-19T20:07:05.846Z,99691.06
2023-05-19T20:10:08.667Z,99692.13
2023-05-19T20:13:11.115Z,99686.00
2023-05-19T20:16:13.433Z,99681.50
2023-05-19T20:19:15.871Z,99684.22
2023-05-19T20:22:18.280Z,99673.81
2023-05-19T20:25:20.911Z,99672.19
2023-05-19T20:28:24.201Z,99671.06
2023-05-19T20:31:26.697Z,99668.72
2023-05-19T20:34:29.055Z,99667.28
2023-05-19T20:37:31.462Z,99668.59
2023-05-19T20:40:37.882Z,99668.06
2023-05-19T20:43:40.196Z,99674.41
2023-05-19T20:46:47.420Z,99663.97
2023-05-19T20:49:49.765Z,99663.84
2023-05-19T20:52:52.077Z,99657.16
2023-05-19T20:55:54.409Z,99671.94
2023-05-19T20:58:56.773Z,99658.03
2023-05-19T21:01:59.139Z,99667.38
2023-05-19T21:05:01.610Z,99666.66
2023-05-19T21:08:04.122Z,99651.34
2023-05-19T21:11:06.512Z,99657.91
2023-05-19T21:14:09.195Z,99662.97
2023-05-19T21:17:11.661Z,99658.53
2023-05-19T21:20:14.218Z,99662.81
2023-05-19T21:23:16.581Z,99660.84
2023-05-19T21:26:18.974Z,99665.44
2023-05-19T21:29:21.251Z,99666.50
2023-05-19T21:32:23.617Z,99675.34
2023-05-19T21:35:26.071Z,99669.66
2023-05-19T21:38:28.445Z,99657.75
2023-05-19T21:41:31.269Z,99658.59
2023-05-19T21:44:33.704Z,99660.28
2023-05-19T21:47:36.195Z,99656.75
2023-05-19T21:50:38.875Z,99658.66
2023-05-19T21:53:41.242Z,99660.47
2023-05-19T21:56:43.608Z,99659.03
2023-05-19T21:59:46.324Z,99659.19
2023-05-19T22:02:48.749Z,99672.97
2023-05-19T22:05:53.382Z,99671.09
2023-05-19T22:08:55.787Z,99664.44
2023-05-19T22:11:58.112Z,99659.84
2023-05-19T22:15:00.882Z,99649.84
2023-05-19T22:18:03.227Z,99651.53
2023-05-19T22:21:05.769Z,99644.47
2023-05-19T22:24:08.053Z,99648.34
2023-05-19T22:27:10.387Z,99640.47
2023-05-19T22:30:12.735Z,99651.97
2023-05-19T22:33:15.147Z,99653.41
2023-05-19T22:36:17.635Z,99643.97
2023-05-19T22:39:19.890Z,99641.25
2023-05-19T22:42:22.159Z,99621.69
2023-05-19T22:45:24.458Z,99625.53
2023-05-19T22:48:26.777Z,99633.91
2023-05-19T22:51:29.097Z,99632.81
2023-05-19T22:54:32.840Z,99628.81
2023-05-19T22:57:35.618Z,99630.44
2023-05-19T23:00:38.004Z,99619.72
2023-05-19T23:03:40.459Z,99612.72
2023-05-19T23:06:42.800Z,99609.22
2023-05-19T23:09:45.114Z,99612.97
2023-05-19T23:12:47.432Z,99607.22
2023-05-19T23:15:49.715Z,99619.22
2023-05-19T23:18:52.049Z,99618.50
2023-05-19T23:21:54.391Z,99622.59
2023-05-19T23:24:56.784Z,99616.09
2023-05-19T23:27:59.112Z,99614.25
2023-05-19T23:31:01.593Z,99610.78
2023-05-19T23:34:03.947Z,99618.06
2023-05-19T23:37:06.361Z,99618.59
2023-05-19T23:40:10.692Z,99618.94
2023-05-19T23:43:13.232Z,99612.97
2023-05-19T23:46:15.669Z,99611.75
2023-05-19T23:49:18.068Z,99603.47
2023-05-19T23:52:20.525Z,99597.97
2023-05-19T23:55:23.616Z,99594.06
2023-05-19T23:58:26.041Z,99594.72
